createdAt,value
2023-05-31T00:02:20.935Z,11.10
2023-05-31T00:04:55.601Z,10.30
2023-05-31T00:07:24.734Z,12.40
2023-05-31T00:09:53.216Z,8.20
2023-05-31T00:12:22.470Z,10.90
2023-05-31T00:14:51.404Z,8.60
2023-05-31T00:19:51.891Z,12.60
2023-05-31T00:22:22.843Z,11.60
2023-05-31T00:24:51.489Z,9.60
2023-05-31T00:27:20.595Z,9.60
2023-05-31T00:29:49.574Z,9.30
2023-05-31T00:32:18.316Z,10.40
2023-05-31T00:34:47.647Z,10.10
2023-05-31T00:37:23.269Z,6.80
2023-05-31T00:39:52.169Z,13.10
2023-05-31T00:42:20.784Z,9.90
2023-05-31T00:44:49.567Z,10.60
2023-05-31T00:47:18.307Z,10.60
2023-05-31T00:49:47.520Z,9.10
2023-05-31T00:52:20.134Z,5.60
2023-05-31T00:54:49.533Z,10.50
2023-05-31T00:57:18.270Z,10.50
2023-05-31T00:59:51.092Z,12.90
2023-05-31T01:02:20.485Z,12.00
2023-05-31T01:04:50.597Z,10.30
2023-05-31T01:07:19.545Z,10.10
2023-05-31T01:09:51.360Z,10.40
2023-05-31T01:12:29.278Z,14.30
2023-05-31T01:15:13.327Z,10.60
2023-05-31T01:18:02.521Z,12.70
2023-05-31T01:20:36.054Z,6.20
2023-05-31T01:23:14.456Z,8.10
2023-05-31T01:26:05.528Z,12.90
2023-05-31T01:28:38.633Z,12.30
2023-05-31T01:31:13.183Z,9.80
2023-05-31T01:33:44.005Z,15.90
2023-05-31T01:36:20.439Z,14.20
2023-05-31T01:38:51.149Z,10.40
2023-05-31T01:41:22.303Z,10.60
2023-05-31T01:43:52.000Z,8.30
2023-05-31T01:46:21.551Z,13.10
2023-05-31T01:48:50.920Z,8.70
2023-05-31T01:51:21.892Z,7.70
2023-05-31T01:53:51.258Z,12.20
2023-05-31T01:56:23.046Z,10.40
2023-05-31T01:58:53.259Z,6.10
2023-05-31T02:01:24.236Z,7.40
2023-05-31T02:03:53.607Z,8.50
2023-05-31T02:06:22.465Z,10.90
2023-05-31T02:08:51.761Z,12.60
2023-05-31T02:11:21.022Z,14.40
2023-05-31T02:13:49.902Z,21.40
2023-05-31T02:16:18.888Z,53.10
2023-05-31T02:18:48.693Z,31.20
2023-05-31T02:21:17.953Z,26.70
2023-05-31T02:23:48.331Z,19.20
2023-05-31T02:26:18.357Z,9.00
2023-05-31T02:28:48.876Z,36.10
2023-05-31T02:31:20.043Z,19.90
2023-05-31T02:33:51.964Z,16.20
2023-05-31T02:36:30.017Z,13.70
2023-05-31T02:38:59.022Z,25.10
2023-05-31T02:41:28.446Z,18.40
2023-05-31T02:44:00.024Z,15.20
2023-05-31T02:46:35.478Z,9.60
2023-05-31T02:49:05.080Z,18.90
2023-05-31T02:51:34.921Z,19.60
2023-05-31T02:54:29.865Z,28.50
2023-05-31T02:57:03.669Z,33.10
2023-05-31T02:59:37.156Z,14.10
2023-05-31T03:02:10.283Z,13.50
2023-05-31T03:04:55.692Z,13.70
2023-05-31T03:07:24.793Z,14.40
2023-05-31T03:09:53.344Z,14.10
2023-05-31T03:12:22.572Z,14.00
2023-05-31T03:14:51.279Z,10.60
2023-05-31T03:17:19.696Z,19.50
2023-05-31T03:22:19.914Z,17.50
2023-05-31T03:24:49.356Z,21.70
2023-05-31T03:27:20.034Z,16.70
2023-05-31T03:29:48.669Z,19.60
2023-05-31T03:32:17.200Z,25.30
2023-05-31T03:34:46.581Z,24.20
2023-05-31T03:37:15.325Z,24.10
2023-05-31T03:39:46.663Z,18.00
2023-05-31T03:42:27.398Z,30.60
2023-05-31T03:44:55.985Z,26.50
2023-05-31T03:47:24.530Z,36.50
2023-05-31T03:49:53.351Z,21.50
2023-05-31T03:52:22.186Z,19.60
2023-05-31T03:54:51.112Z,14.90
2023-05-31T03:59:50.799Z,20.70
2023-05-31T04:02:19.910Z,13.30
2023-05-31T04:04:49.133Z,16.80
2023-05-31T04:07:19.390Z,11.10
2023-05-31T04:09:47.895Z,16.00
2023-05-31T04:12:16.866Z,17.00
2023-05-31T04:14:45.401Z,16.60
2023-05-31T04:17:14.335Z,18.60
2023-05-31T04:19:43.405Z,24.10
2023-05-31T04:22:12.148Z,25.20
2023-05-31T04:24:41.465Z,23.30
2023-05-31T04:27:12.245Z,15.30
2023-05-31T04:29:42.094Z,14.00
2023-05-31T04:32:11.111Z,21.60
2023-05-31T04:34:40.505Z,22.70
2023-05-31T04:37:10.370Z,25.80
2023-05-31T04:42:12.973Z,14.50
2023-05-31T04:44:42.898Z,19.40
2023-05-31T04:47:12.070Z,14.30
2023-05-31T04:49:54.243Z,21.10
2023-05-31T04:52:30.563Z,38.40
2023-05-31T04:55:01.158Z,15.80
2023-05-31T04:57:32.765Z,12.00
2023-05-31T05:00:02.904Z,17.90
2023-05-31T05:02:32.949Z,17.60
2023-05-31T05:05:02.126Z,18.30
2023-05-31T05:07:31.346Z,15.00
2023-05-31T05:09:59.980Z,20.70
2023-05-31T05:12:30.607Z,29.00
2023-05-31T05:14:59.502Z,17.60
2023-05-31T05:17:28.943Z,24.40
2023-05-31T05:19:57.804Z,18.10
2023-05-31T05:22:27.634Z,23.30
2023-05-31T05:24:56.272Z,16.20
2023-05-31T05:27:24.956Z,15.60
2023-05-31T05:29:54.136Z,21.60
2023-05-31T05:32:22.834Z,30.40
2023-05-31T05:34:52.135Z,24.20
2023-05-31T05:37:21.286Z,35.50
2023-05-31T05:39:50.110Z,21.20
2023-05-31T05:42:19.309Z,20.60
2023-05-31T05:44:48.911Z,21.90
2023-05-31T05:47:17.831Z,24.40
2023-05-31T05:49:46.593Z,22.40
2023-05-31T05:52:15.379Z,14.70
2023-05-31T05:54:44.628Z,20.70
2023-05-31T05:57:13.626Z,15.80
2023-05-31T05:59:47.672Z,25.00
2023-05-31T06:02:25.176Z,28.30
2023-05-31T06:04:55.904Z,26.40
2023-05-31T06:07:24.602Z,22.70
2023-05-31T06:09:54.716Z,23.00
2023-05-31T06:12:23.929Z,21.00
2023-05-31T06:14:55.883Z,13.00
2023-05-31T06:17:25.190Z,11.80
2023-05-31T06:19:54.180Z,9.10
2023-05-31T06:22:23.072Z,12.00
2023-05-31T06:24:52.393Z,13.10
2023-05-31T06:27:21.112Z,14.10
2023-05-31T06:29:56.698Z,11.70
2023-05-31T06:32:32.685Z,10.20
2023-05-31T06:35:01.521Z,20.90
2023-05-31T06:37:30.690Z,15.20
2023-05-31T06:39:59.848Z,16.90
2023-05-31T06:42:29.035Z,10.60
2023-05-31T06:44:58.006Z,7.50
2023-05-31T06:47:45.809Z,14.90
2023-05-31T06:50:17.252Z,15.70
2023-05-31T06:52:49.592Z,5.80
2023-05-31T06:55:44.312Z,13.30
2023-05-31T06:58:17.254Z,9.10
2023-05-31T07:00:47.768Z,7.70
2023-05-31T07:05:49.708Z,8.70
2023-05-31T07:08:19.167Z,8.00
2023-05-31T07:11:07.546Z,9.60
2023-05-31T07:13:36.570Z,10.00
2023-05-31T07:16:05.278Z,9.60
2023-05-31T07:18:34.154Z,13.10
2023-05-31T07:21:04.878Z,5.60
2023-05-31T07:23:33.578Z,6.70
2023-05-31T07:26:03.940Z,7.50
2023-05-31T07:28:32.987Z,7.20
2023-05-31T07:31:03.345Z,6.80
2023-05-31T07:33:32.700Z,8.90
2023-05-31T07:36:02.250Z,8.10
2023-05-31T07:38:32.283Z,8.40
2023-05-31T07:41:01.315Z,7.00
2023-05-31T07:43:34.306Z,10.20
2023-05-31T07:46:03.938Z,5.60
2023-05-31T07:48:34.897Z,7.70
2023-05-31T07:51:03.695Z,8.80
2023-05-31T07:53:32.818Z,12.30
2023-05-31T07:56:02.648Z,9.30
2023-05-31T07:58:32.162Z,9.70
2023-05-31T08:01:02.312Z,6.40
2023-05-31T08:03:32.930Z,6.30
2023-05-31T08:06:01.636Z,7.60
2023-05-31T08:08:31.235Z,6.80
2023-05-31T08:11:00.825Z,7.30
2023-05-31T08:18:28.023Z,6.40
2023-05-31T08:20:56.697Z,6.40
2023-05-31T08:23:25.376Z,8.70
2023-05-31T08:25:56.025Z,6.50
2023-05-31T08:28:25.335Z,6.90
2023-05-31T08:30:54.181Z,3.00
2023-05-31T08:33:23.255Z,4.30
2023-05-31T08:35:51.911Z,4.70
2023-05-31T08:38:21.030Z,4.20
2023-05-31T08:40:52.455Z,8.70
2023-05-31T08:43:23.108Z,8.50
2023-05-31T08:45:52.089Z,4.80
2023-05-31T08:48:37.145Z,5.30
2023-05-31T08:51:08.239Z,7.70
2023-05-31T08:53:38.668Z,8.60
2023-05-31T08:56:09.582Z,5.60
2023-05-31T08:58:40.290Z,3.60
2023-05-31T09:01:09.597Z,4.60
2023-05-31T09:03:39.650Z,3.50
2023-05-31T09:06:08.710Z,6.60
2023-05-31T09:08:37.591Z,5.60
2023-05-31T09:11:07.378Z,10.80
2023-05-31T09:13:36.801Z,8.60
2023-05-31T09:16:08.954Z,8.30
2023-05-31T09:18:42.801Z,6.70
2023-05-31T09:21:14.028Z,12.90
2023-05-31T09:24:09.806Z,10.50
2023-05-31T09:26:49.361Z,7.10
2023-05-31T09:29:19.759Z,5.50
2023-05-31T09:31:48.461Z,7.90
2023-05-31T09:34:28.909Z,11.70
2023-05-31T09:37:00.875Z,8.60
2023-05-31T09:39:30.410Z,7.80
2023-05-31T09:42:00.383Z,5.90
2023-05-31T09:44:29.494Z,6.80
2023-05-31T09:47:09.456Z,13.30
2023-05-31T09:49:38.685Z,17.60
2023-05-31T09:52:14.503Z,10.40
2023-05-31T09:54:44.180Z,12.90
2023-05-31T09:57:34.114Z,4.90
2023-05-31T10:00:06.192Z,4.50
2023-05-31T10:02:51.803Z,8.70
2023-05-31T10:05:22.033Z,11.90
2023-05-31T10:07:53.965Z,9.40
2023-05-31T10:10:23.570Z,5.30
2023-05-31T10:15:26.747Z,6.90
2023-05-31T10:18:30.539Z,8.50
2023-05-31T10:21:01.388Z,7.50
2023-05-31T10:23:34.138Z,6.70
2023-05-31T10:26:19.177Z,9.60
2023-05-31T10:29:00.856Z,8.10
2023-05-31T10:31:35.085Z,5.40
2023-05-31T10:34:17.247Z,4.90
2023-05-31T10:36:46.589Z,12.50
2023-05-31T10:39:43.532Z,5.20
2023-05-31T10:42:51.019Z,6.40
2023-05-31T10:45:40.530Z,11.50
2023-05-31T10:48:58.590Z,8.20
2023-05-31T10:52:16.431Z,11.60
2023-05-31T10:54:45.415Z,8.50
2023-05-31T10:57:16.535Z,7.80
2023-05-31T10:59:48.828Z,7.90
2023-05-31T11:02:17.958Z,7.10
2023-05-31T11:04:49.120Z,5.50
2023-05-31T11:07:26.426Z,10.80
2023-05-31T11:09:58.139Z,6.30
2023-05-31T11:12:37.580Z,11.20
2023-05-31T11:15:13.141Z,8.60
2023-05-31T11:17:58.587Z,6.40
2023-05-31T11:20:28.095Z,6.20
2023-05-31T11:25:57.082Z,9.50
2023-05-31T11:29:00.486Z,9.40
2023-05-31T11:32:08.132Z,6.00
2023-05-31T11:35:19.009Z,5.90
2023-05-31T11:37:49.110Z,8.80
2023-05-31T11:42:49.640Z,4.00
2023-05-31T11:45:25.931Z,9.10
2023-05-31T11:48:37.090Z,8.60
2023-05-31T11:51:08.773Z,8.40
2023-05-31T11:53:38.445Z,5.00
2023-05-31T11:56:08.518Z,9.60
2023-05-31T12:01:06.848Z,5.30
2023-05-31T12:03:41.766Z,9.20
2023-05-31T12:06:10.771Z,3.70
2023-05-31T12:08:42.255Z,7.00
2023-05-31T12:11:11.311Z,3.70
2023-05-31T12:13:40.114Z,7.40
2023-05-31T12:16:08.692Z,5.00
2023-05-31T12:18:38.070Z,9.30
2023-05-31T12:21:12.821Z,5.60
2023-05-31T12:24:03.692Z,8.30
2023-05-31T12:26:40.559Z,7.80
2023-05-31T12:29:09.996Z,5.80
2023-05-31T12:31:40.776Z,6.80
2023-05-31T12:34:14.337Z,9.40
2023-05-31T12:36:48.699Z,7.30
2023-05-31T12:39:23.475Z,9.80
2023-05-31T12:41:52.713Z,7.70
2023-05-31T12:44:22.637Z,16.10
2023-05-31T12:46:52.731Z,10.30
2023-05-31T12:49:24.452Z,5.20
2023-05-31T12:52:07.248Z,10.60
2023-05-31T12:54:41.799Z,6.60
2023-05-31T12:57:11.133Z,5.40
2023-05-31T12:59:41.132Z,5.20
2023-05-31T13:02:09.790Z,7.80
2023-05-31T13:04:38.648Z,5.80
2023-05-31T13:07:07.393Z,10.10
2023-05-31T13:09:36.867Z,9.60
2023-05-31T13:12:06.747Z,11.80
2023-05-31T13:14:35.314Z,5.90
2023-05-31T13:17:04.214Z,7.20
2023-05-31T13:19:34.414Z,5.70
2023-05-31T13:22:04.437Z,6.10
2023-05-31T13:24:33.935Z,6.30
2023-05-31T13:27:04.755Z,9.60
2023-05-31T13:29:34.109Z,5.50
2023-05-31T13:32:02.826Z,7.50
2023-05-31T13:34:31.978Z,7.20
2023-05-31T13:37:00.622Z,48.90
2023-05-31T13:39:29.298Z,7.30
2023-05-31T13:41:59.652Z,6.20
2023-05-31T13:44:28.250Z,8.00
2023-05-31T13:46:56.861Z,7.20
2023-05-31T13:49:26.058Z,5.80
2023-05-31T13:51:54.620Z,6.20
2023-05-31T13:54:23.165Z,8.60
2023-05-31T13:56:52.032Z,10.60
2023-05-31T13:59:20.736Z,4.00
2023-05-31T14:01:49.339Z,6.20
2023-05-31T14:04:19.943Z,6.00
2023-05-31T14:06:50.791Z,8.50
2023-05-31T14:09:20.273Z,11.90
2023-05-31T14:11:49.094Z,9.80
2023-05-31T14:14:19.084Z,8.90
2023-05-31T14:16:48.634Z,5.10
2023-05-31T14:19:17.298Z,6.10
2023-05-31T14:21:48.339Z,5.70
2023-05-31T14:24:17.615Z,4.50
2023-05-31T14:26:48.009Z,6.80
2023-05-31T14:29:16.694Z,9.70
2023-05-31T14:31:46.039Z,6.70
2023-05-31T14:34:16.888Z,6.30
2023-05-31T14:36:46.324Z,7.00
2023-05-31T14:39:15.713Z,5.90
2023-05-31T14:41:44.474Z,7.70
2023-05-31T14:44:13.052Z,5.70
2023-05-31T14:46:42.093Z,7.50
2023-05-31T14:49:11.104Z,9.60
2023-05-31T14:51:39.885Z,8.10
2023-05-31T14:54:08.772Z,5.00
2023-05-31T14:56:37.662Z,5.90
2023-05-31T14:59:06.375Z,8.00
2023-05-31T15:01:35.444Z,7.20
2023-05-31T15:04:07.273Z,5.50
2023-05-31T15:06:38.632Z,10.10
2023-05-31T15:09:08.863Z,4.60
2023-05-31T15:11:38.250Z,3.70
2023-05-31T15:14:10.279Z,5.60
2023-05-31T15:16:39.563Z,12.10
2023-05-31T15:19:08.527Z,7.40
2023-05-31T15:21:38.482Z,5.30
2023-05-31T15:24:07.426Z,6.30
2023-05-31T15:26:36.114Z,6.50
2023-05-31T15:29:04.979Z,6.50
2023-05-31T15:31:33.947Z,10.90
2023-05-31T15:34:02.560Z,8.20
2023-05-31T15:36:31.580Z,7.00
2023-05-31T15:39:03.084Z,10.50
2023-05-31T15:41:32.263Z,8.00
2023-05-31T15:44:01.318Z,4.00
2023-05-31T15:46:30.156Z,4.30
2023-05-31T15:48:58.814Z,7.70
2023-05-31T15:51:27.920Z,6.90
2023-05-31T15:53:58.135Z,8.90
2023-05-31T15:56:28.279Z,10.90
2023-05-31T16:01:25.877Z,6.00
2023-05-31T16:03:55.473Z,6.30
2023-05-31T16:06:24.543Z,9.40
2023-05-31T16:08:53.336Z,12.60
2023-05-31T16:11:22.471Z,9.70
2023-05-31T16:13:52.437Z,6.20
2023-05-31T16:16:21.386Z,14.20
2023-05-31T16:18:51.734Z,10.30
2023-05-31T16:23:49.896Z,8.90
2023-05-31T16:26:18.555Z,6.40
2023-05-31T16:28:47.704Z,9.90
2023-05-31T16:31:16.868Z,7.60
2023-05-31T16:33:46.767Z,13.90
2023-05-31T16:36:15.676Z,10.50
2023-05-31T16:38:44.268Z,10.90
2023-05-31T16:41:13.085Z,8.90
2023-05-31T16:43:42.504Z,8.20
2023-05-31T16:46:11.251Z,8.40
2023-05-31T16:48:40.482Z,7.90
2023-05-31T16:51:09.745Z,10.40
2023-05-31T16:53:38.287Z,7.10
2023-05-31T16:56:07.793Z,9.10
2023-05-31T16:58:36.769Z,12.90
2023-05-31T17:01:09.886Z,7.10
2023-05-31T17:04:03.915Z,10.80
2023-05-31T17:06:57.742Z,7.50
2023-05-31T17:09:52.209Z,10.50
2023-05-31T17:12:36.761Z,7.90
2023-05-31T17:15:30.195Z,7.80
2023-05-31T17:21:02.512Z,10.30
2023-05-31T17:23:51.457Z,11.00
2023-05-31T17:26:40.730Z,8.40
2023-05-31T17:29:32.263Z,9.80
2023-05-31T17:32:29.892Z,7.00
2023-05-31T17:35:18.309Z,6.40
2023-05-31T17:38:09.442Z,8.70
2023-05-31T17:40:54.822Z,12.60
2023-05-31T17:43:30.818Z,9.00
2023-05-31T17:48:30.586Z,19.40
2023-05-31T17:51:01.956Z,15.90
2023-05-31T17:53:30.835Z,17.00
2023-05-31T17:56:00.133Z,14.40
2023-05-31T17:58:30.405Z,14.00
2023-05-31T18:00:59.438Z,15.70
2023-05-31T18:03:28.702Z,16.60
2023-05-31T18:05:58.092Z,14.00
2023-05-31T18:08:27.078Z,14.10
2023-05-31T18:10:56.038Z,19.70
2023-05-31T18:13:24.918Z,19.70
2023-05-31T18:15:53.563Z,12.80
2023-05-31T18:18:22.971Z,14.00
2023-05-31T18:20:52.316Z,12.30
2023-05-31T18:23:20.945Z,15.90
2023-05-31T18:25:49.644Z,15.40
2023-05-31T18:28:19.151Z,12.20
2023-05-31T18:30:47.726Z,14.90
2023-05-31T18:33:17.157Z,22.60
2023-05-31T18:35:46.334Z,29.50
2023-05-31T18:38:14.886Z,42.20
2023-05-31T18:40:45.618Z,33.20
2023-05-31T18:43:14.563Z,35.70
2023-05-31T18:45:43.069Z,29.40
2023-05-31T18:48:11.682Z,29.70
2023-05-31T18:50:41.052Z,38.60
2023-05-31T18:53:09.614Z,23.40
2023-05-31T18:55:40.167Z,21.70
2023-05-31T18:58:09.533Z,25.00
2023-05-31T19:00:39.302Z,31.40
2023-05-31T19:03:11.553Z,23.20
2023-05-31T19:05:40.846Z,20.10
2023-05-31T19:08:09.688Z,23.90
2023-05-31T19:10:39.412Z,20.00
2023-05-31T19:13:10.692Z,14.00
2023-05-31T19:15:40.008Z,17.10
2023-05-31T19:18:18.282Z,28.70
2023-05-31T19:20:49.821Z,17.50
2023-05-31T19:23:19.636Z,20.40
2023-05-31T19:25:48.339Z,23.90
2023-05-31T19:28:17.366Z,17.80
2023-05-31T19:30:47.164Z,20.80
2023-05-31T19:33:17.589Z,15.50
2023-05-31T19:35:49.504Z,19.30
2023-05-31T19:38:18.044Z,16.50
2023-05-31T19:40:47.896Z,17.00
2023-05-31T19:43:19.704Z,9.70
2023-05-31T19:45:48.476Z,14.30
2023-05-31T19:48:18.220Z,17.70
2023-05-31T19:50:47.127Z,23.20
2023-05-31T19:53:15.815Z,12.90
2023-05-31T19:55:48.023Z,19.40
2023-05-31T19:58:17.689Z,14.50
2023-05-31T20:00:46.719Z,12.80
2023-05-31T20:03:15.900Z,16.00
2023-05-31T20:05:44.786Z,6.60
2023-05-31T20:08:13.649Z,13.90
2023-05-31T20:10:44.469Z,8.50
2023-05-31T20:13:16.041Z,8.30
2023-05-31T20:15:47.853Z,10.30
2023-05-31T20:18:17.658Z,8.70
2023-05-31T20:20:47.358Z,8.90
2023-05-31T20:23:16.275Z,7.40
2023-05-31T20:25:45.192Z,14.50
2023-05-31T20:28:14.887Z,13.20
2023-05-31T20:30:43.764Z,9.80
2023-05-31T20:33:12.827Z,12.40
2023-05-31T20:35:45.669Z,7.80
2023-05-31T20:38:14.985Z,14.80
2023-05-31T20:40:44.081Z,13.40
2023-05-31T20:43:13.897Z,7.40
2023-05-31T20:45:43.101Z,9.00
2023-05-31T20:48:11.743Z,13.50
2023-05-31T20:50:40.702Z,11.90
2023-05-31T20:53:10.283Z,11.40
2023-05-31T20:55:39.997Z,7.50
2023-05-31T20:58:09.075Z,8.70
2023-05-31T21:00:38.282Z,9.60
2023-05-31T21:03:08.214Z,10.40
2023-05-31T21:05:38.406Z,14.10
2023-05-31T21:08:07.452Z,8.50
2023-05-31T21:10:36.094Z,13.30
2023-05-31T21:13:04.923Z,13.30
2023-05-31T21:15:33.553Z,11.90
2023-05-31T21:18:02.195Z,12.90
2023-05-31T21:20:31.407Z,8.60
2023-05-31T21:23:00.104Z,8.80
2023-05-31T21:25:29.041Z,12.30
2023-05-31T21:27:58.331Z,11.30
2023-05-31T21:30:26.884Z,12.50
2023-05-31T21:32:55.453Z,10.20
2023-05-31T21:35:24.494Z,10.20
2023-05-31T21:37:53.106Z,9.30
2023-05-31T21:40:24.597Z,9.40
2023-05-31T21:42:53.281Z,10.00
2023-05-31T21:45:22.221Z,10.30
2023-05-31T21:47:50.727Z,7.20
2023-05-31T21:50:19.487Z,8.20
2023-05-31T21:52:48.808Z,8.20
2023-05-31T21:55:17.330Z,6.70
2023-05-31T21:57:46.621Z,9.20
2023-05-31T22:00:15.559Z,9.20
2023-05-31T22:02:44.166Z,9.20
2023-05-31T22:05:13.315Z,17.40
2023-05-31T22:07:42.301Z,16.80
2023-05-31T22:10:11.083Z,10.20
2023-05-31T22:12:39.811Z,11.10
2023-05-31T22:15:09.288Z,7.20
2023-05-31T22:17:39.534Z,7.60
2023-05-31T22:22:38.620Z,9.10
2023-05-31T22:27:40.757Z,13.40
2023-05-31T22:30:09.929Z,10.50
2023-05-31T22:32:38.551Z,10.90
2023-05-31T22:35:07.894Z,8.00
2023-05-31T22:37:38.501Z,8.40
2023-05-31T22:42:36.658Z,9.40
2023-05-31T22:45:06.330Z,11.40
2023-05-31T22:47:35.447Z,11.20
2023-05-31T22:50:06.832Z,13.50
2023-05-31T22:52:38.616Z,14.90
2023-05-31T22:55:08.426Z,8.80
2023-05-31T23:00:12.700Z,8.70
2023-05-31T23:02:42.454Z,10.10
2023-05-31T23:05:12.593Z,12.70
2023-05-31T23:07:48.350Z,8.20
2023-05-31T23:10:17.395Z,6.30
2023-05-31T23:12:46.667Z,15.20
2023-05-31T23:15:16.119Z,14.50
2023-05-31T23:17:44.943Z,9.60
2023-05-31T23:20:16.214Z,13.50
2023-05-31T23:22:50.087Z,7.50
2023-05-31T23:25:18.613Z,10.90
2023-05-31T23:27:47.144Z,11.60
2023-05-31T23:30:16.302Z,14.00
2023-05-31T23:32:45.078Z,9.90
2023-05-31T23:35:13.909Z,7.70
2023-05-31T23:37:42.968Z,6.60
2023-05-31T23:40:11.980Z,7.40
2023-05-31T23:42:40.874Z,7.10
2023-05-31T23:45:10.059Z,11.00
2023-05-31T23:47:38.668Z,9.80
2023-05-31T23:50:08.535Z,11.60
2023-05-31T23:52:37.779Z,6.70
2023-05-31T23:55:07.611Z,6.80
2023-05-31T23:57:36.286Z,12.50
